Time,TemperatureF,DewpointF,PressureIn,WindDirection,WindDirectionDegrees,WindSpeedMPH,WindSpeedGustMPH,Humidity,HourlyPrecipIn,Conditions,Clouds,dailyrainin,SolarRadiationWatts/m^2,SoftwareType,DateUTC
2013-08-19 00:03:00,65.0,60.0,-100.00,SSE,162,0.0,4.0,85,0.00,,,0.00,0.000000,,2013-08-19 04:03:00,
2013-08-19 00:43:00,63.0,60.0,-100.00,South,171,0.0,0.0,89,0.00,,,0.00,0.000000,,2013-08-19 04:43:00,
2013-08-19 00:53:00,63.0,60.0,-100.00,South,171,0.0,0.0,89,0.00,,,0.00,0.000000,,2013-08-19 04:53:00,
2013-08-19 01:02:00,63.0,60.0,-100.00,South,171,0.0,0.0,89,0.00,,,0.00,0.000000,,2013-08-19 05:02:00,
2013-08-19 01:42:00,61.0,59.0,-100.00,SSW,203,0.0,0.0,93,0.00,,,0.00,0.000000,,2013-08-19 05:42:00,
2013-08-19 01:52:00,61.0,59.0,-100.00,SSW,203,0.0,0.0,93,0.00,,,0.00,0.000000,,2013-08-19 05:52:00,
2013-08-19 02:02:00,61.0,59.0,-100.00,SSW,203,0.0,0.0,93,0.00,,,0.00,0.000000,,2013-08-19 06:02:00,
2013-08-19 02:42:00,61.0,59.0,-100.00,SE,144,0.0,0.0,94,0.00,,,0.00,0.000000,,2013-08-19 06:42:00,
2013-08-19 02:52:00,61.0,59.0,-100.00,SE,144,0.0,0.0,94,0.00,,,0.00,0.000000,,2013-08-19 06:52:00,
2013-08-19 03:01:00,61.0,59.0,-100.00,SE,144,0.0,0.0,94,0.00,,,0.00,0.000000,,2013-08-19 07:01:00,
2013-08-19 03:42:00,61.0,60.0,-100.00,NW,307,0.0,0.0,95,0.00,,,0.00,0.000000,,2013-08-19 07:42:00,
2013-08-19 03:52:00,61.0,60.0,-100.00,NW,307,0.0,0.0,95,0.00,,,0.00,0.000000,,2013-08-19 07:52:00,
2013-08-19 04:02:00,61.0,60.0,-100.00,NW,307,0.0,0.0,95,0.00,,,0.00,0.000000,,2013-08-19 08:02:00,
2013-08-19 04:42:00,61.0,59.0,-100.00,East,95,0.0,0.0,94,0.00,,,0.00,0.000000,,2013-08-19 08:42:00,
2013-08-19 04:52:00,61.0,59.0,-100.00,East,95,0.0,0.0,94,0.00,,,0.00,0.000000,,2013-08-19 08:52:00,
2013-08-19 05:01:00,61.0,59.0,-100.00,East,95,0.0,0.0,94,0.00,,,0.00,0.000000,,2013-08-19 09:01:00,
2013-08-19 05:43:00,59.0,58.0,-100.00,South,178,0.0,2.0,96,0.00,,,0.00,0.000000,,2013-08-19 09:43:00,
2013-08-19 05:53:00,59.0,58.0,-100.00,South,178,0.0,2.0,96,0.00,,,0.00,0.000000,,2013-08-19 09:53:00,
2013-08-19 06:03:00,59.0,58.0,-100.00,South,178,0.0,2.0,96,0.00,,,0.00,0.000000,,2013-08-19 10:03:00,
2013-08-19 06:43:00,58.0,57.0,-100.00,WNW,291,0.0,0.0,98,0.00,,,0.00,0.000000,,2013-08-19 10:43:00,
2013-08-19 06:52:00,58.0,57.0,-100.00,WNW,291,0.0,0.0,98,0.00,,,0.00,0.000000,,2013-08-19 10:52:00,
2013-08-19 07:02:00,58.0,57.0,-100.00,WNW,291,0.0,0.0,98,0.00,,,0.00,0.000000,,2013-08-19 11:02:00,
2013-08-19 07:45:00,59.0,58.0,-100.00,SSE,162,0.0,2.0,98,0.00,,,0.00,1.000000,,2013-08-19 11:45:00,
2013-08-19 07:52:00,59.0,58.0,-100.00,SSE,162,0.0,2.0,98,0.00,,,0.00,1.000000,,2013-08-19 11:52:00,
2013-08-19 08:42:00,60.0,59.0,-100.00,West,280,0.0,0.0,97,0.00,,,0.00,22.000000,,2013-08-19 12:42:00,
2013-08-19 08:52:00,60.0,59.0,-100.00,West,280,0.0,0.0,97,0.00,,,0.00,22.000000,,2013-08-19 12:52:00,
2013-08-19 09:03:00,60.0,59.0,-100.00,West,280,0.0,0.0,97,0.00,,,0.00,22.000000,,2013-08-19 13:03:00,
2013-08-19 09:42:00,63.0,61.0,-100.00,SSW,194,0.0,1.0,93,0.00,,,0.00,76.000000,,2013-08-19 13:42:00,
2013-08-19 09:52:00,63.0,61.0,-100.00,SSW,194,0.0,1.0,93,0.00,,,0.00,76.000000,,2013-08-19 13:52:00,
2013-08-19 10:02:00,63.0,61.0,-100.00,SSW,194,0.0,1.0,93,0.00,,,0.00,76.000000,,2013-08-19 14:02:00,
2013-08-19 10:42:00,67.0,61.0,-100.00,SSW,213,1.0,3.0,81,0.00,,,0.00,218.000000,,2013-08-19 14:42:00,
2013-08-19 10:52:00,67.0,61.0,-100.00,SSW,213,1.0,3.0,81,0.00,,,0.00,218.000000,,2013-08-19 14:52:00,
2013-08-19 11:01:00,67.0,61.0,-100.00,SSW,213,1.0,3.0,81,0.00,,,0.00,218.000000,,2013-08-19 15:01:00,
2013-08-19 11:44:00,74.0,64.0,-100.00,WSW,246,2.0,4.0,70,0.00,,,0.00,590.000000,,2013-08-19 15:44:00,
2013-08-19 11:54:00,74.0,64.0,-100.00,WSW,246,2.0,4.0,70,0.00,,,0.00,590.000000,,2013-08-19 15:54:00,
2013-08-19 12:05:00,74.0,64.0,-100.00,WSW,246,2.0,4.0,70,0.00,,,0.00,590.000000,,2013-08-19 16:05:00,
2013-08-19 12:47:00,77.0,64.0,-100.00,South,171,3.0,6.0,65,0.00,,,0.00,702.000000,,2013-08-19 16:47:00,
2013-08-19 13:04:00,77.0,64.0,-100.00,South,171,3.0,6.0,65,0.00,,,0.00,702.000000,,2013-08-19 17:04:00,
2013-08-19 13:49:00,73.0,63.0,-100.00,SSW,210,2.0,6.0,71,0.00,,,0.00,373.000000,,2013-08-19 17:49:00,
2013-08-19 13:57:00,73.0,63.0,-100.00,SSW,210,2.0,6.0,71,0.00,,,0.00,373.000000,,2013-08-19 17:57:00,
2013-08-19 14:05:00,73.0,63.0,-100.00,SSW,210,2.0,6.0,71,0.00,,,0.00,373.000000,,2013-08-19 18:05:00,
2013-08-19 14:07:00,75.0,63.0,-100.00,SSE,166,4.0,7.0,66,0.00,,,0.00,498.000000,,2013-08-19 18:07:00,
2013-08-19 14:50:00,-999.0,-99.9,-100.00,SSE,166,4.0,7.0,66,0.00,,,0.00,498.000000,,2013-08-19 18:50:00,
2013-08-19 15:00:00,-999.0,-99.9,-100.00,SSE,166,4.0,7.0,66,0.00,,,0.00,498.000000,,2013-08-19 19:00:00,
2013-08-19 15:07:00,78.0,64.0,-100.00,SSW,212,3.0,7.0,62,0.00,,,0.00,597.000000,,2013-08-19 19:07:00,
2013-08-19 15:30:00,-999.0,-99.9,-100.00,SSW,212,3.0,7.0,62,0.00,,,0.00,597.000000,,2013-08-19 19:30:00,
2013-08-19 15:50:00,78.0,64.0,-100.00,SSW,212,3.0,7.0,62,0.00,,,0.00,597.000000,,2013-08-19 19:50:00,
2013-08-19 15:59:00,78.0,64.0,-100.00,SSW,212,3.0,7.0,62,0.00,,,0.00,597.000000,,2013-08-19 19:59:00,
2013-08-19 16:07:00,77.0,64.0,-100.00,South,179,2.0,8.0,65,0.00,,,0.00,486.000000,,2013-08-19 20:07:00,
2013-08-19 16:50:00,77.0,64.0,-100.00,South,179,2.0,8.0,65,0.00,,,0.00,486.000000,,2013-08-19 20:50:00,
2013-08-19 17:00:00,-999.0,-99.9,-100.00,South,179,2.0,8.0,-999,-99.99,,,-99.99,486.000000,,2013-08-19 21:00:00,
2013-08-19 17:46:00,77.0,64.0,-100.00,North,355,4.0,9.0,65,0.00,,,0.00,412.000000,,2013-08-19 21:46:00,
2013-08-19 17:55:00,77.0,64.0,-100.00,North,355,4.0,9.0,65,0.00,,,0.00,412.000000,,2013-08-19 21:55:00,
2013-08-19 18:06:00,77.0,64.0,-100.00,North,355,4.0,9.0,65,0.00,,,0.00,412.000000,,2013-08-19 22:06:00,
2013-08-19 18:44:00,74.0,65.0,-100.00,NNW,332,2.0,8.0,74,0.00,,,0.00,378.000000,,2013-08-19 22:44:00,
2013-08-19 18:55:00,74.0,65.0,-100.00,NNW,332,2.0,8.0,74,0.00,,,0.00,378.000000,,2013-08-19 22:55:00,
2013-08-19 19:05:00,74.0,65.0,-100.00,NNW,332,2.0,8.0,74,0.00,,,0.00,378.000000,,2013-08-19 23:05:00,
2013-08-19 19:48:00,71.0,65.0,-100.00,NW,304,3.0,12.0,81,0.00,,,0.00,77.000000,,2013-08-19 23:48:00,
2013-08-19 19:55:00,71.0,65.0,-100.00,NW,304,3.0,12.0,81,0.00,,,0.00,77.000000,,2013-08-19 23:55:00,
2013-08-19 20:02:00,71.0,65.0,-100.00,NW,304,3.0,12.0,81,0.00,,,0.00,77.000000,,2013-08-20 00:02:00,
2013-08-19 20:42:00,69.0,65.0,-100.00,SE,128,0.0,7.0,87,0.00,,,0.00,24.000000,,2013-08-20 00:42:00,
2013-08-19 20:53:00,69.0,65.0,-100.00,SE,128,0.0,7.0,87,0.00,,,0.00,24.000000,,2013-08-20 00:53:00,
2013-08-19 21:03:00,69.0,65.0,-100.00,SE,128,0.0,7.0,87,0.00,,,0.00,24.000000,,2013-08-20 01:03:00,
2013-08-19 21:42:00,66.0,64.0,-100.00,NNE,32,0.0,2.0,92,0.00,,,0.00,1.000000,,2013-08-20 01:42:00,
2013-08-19 21:52:00,66.0,64.0,-100.00,NNE,32,0.0,2.0,92,0.00,,,0.00,1.000000,,2013-08-20 01:52:00,
2013-08-19 22:02:00,66.0,64.0,-100.00,NNE,32,0.0,2.0,92,0.00,,,0.00,1.000000,,2013-08-20 02:02:00,
2013-08-19 22:42:00,63.0,62.0,-100.00,NNE,18,0.0,0.0,97,0.00,,,0.00,0.000000,,2013-08-20 02:42:00,
2013-08-19 22:52:00,63.0,62.0,-100.00,NNE,18,0.0,0.0,97,0.00,,,0.00,0.000000,,2013-08-20 02:52:00,
2013-08-19 23:02:00,63.0,62.0,-100.00,NNE,18,0.0,0.0,97,0.00,,,0.00,0.000000,,2013-08-20 03:02:00,
2013-08-19 23:43:00,61.0,60.0,-100.00,West,276,0.0,0.0,98,0.00,,,0.00,0.000000,,2013-08-20 03:43:00,
2013-08-19 23:54:00,61.0,60.0,-100.00,West,276,0.0,0.0,98,0.00,,,0.00,0.000000,,2013-08-20 03:54:00,